KLND

Hunt Field Airport

Lander, Wyoming, USA
METAR KLND 271053Z AUTO 00000KT 10SM FEW120 15/06 A2996 RMK AO2 SLP076 T01500061
Observed Flight Rules
May-27 @ 10:53 UTC (an hour ago) Visual Flight Rules
Visibility Clouds
10 miles
  • Few at 12,000' AGL
Temperatures Readings
Current 15°C / 59°F
Dewpoint 6°C / 43°F
Humidity 55%
Altimeter 29.96" Hg
Pressure 1007.6 hPa
Elevation 1694
METAR KLND 271053Z AUTO 00000KT 10SM FEW120 15/06 A2996 RMK AO2 SLP076 T01500061
Observed Flight Rules
May-27 @ 10:53 UTC
(an hour ago)
VFR
Clouds
  • Few at 12,000' AGL
Temperature Dewpoint
15°C / 59°F 6°C / 43°F
Humidity Altimeter Pressure
55% 29.96" Hg 1007.6 hPa